KCHD/CHD METAR and TAF weather

Enter ICAO airport designator
Station Type Date Time Source
KCHD METAR 2021/09/20 02:47 UTC NOAA

KCHD 200247Z 27005KT 10SM SKC 33/11 A2980


Station Type Date Time Source
KCHD Decoded METAR 2021/09/20 02:47 UTC NOAA

Chandler, Chandler Municipal Airport, AZ, United States (KCHD) 33-16-09N 111-48-40W
Sep 19, 2021 - 10:47 PM EDT / 2021.09.20 0247 UTC
Wind: from the W (270 degrees) at 6 MPH (5 KT):0
Visibility: 10 mile(s):0
Sky conditions: clear
Temperature: 91 F (33 C)
Dew Point: 51 F (11 C)
Relative Humidity: 26%
Pressure (altimeter): 29.8 in. Hg (1009 hPa)
ob: KCHD 200247Z 27005KT 10SM SKC 33/11 A2980
cycle: 3

Station Type Date Time Source
KCHD TAF UTC NOAA

Error!

Example: see airport list